sensor_id;sensor_type;location;lat;lon;timestamp;P1;durP1;ratioP1;P2;durP2;ratioP2
78885;SDS011;68269;52.514;5.722;2023-06-14T00:01:11;7.63;;;1.35;;
78885;SDS011;68269;52.514;5.722;2023-06-14T00:03:42;6.07;;;1.30;;
78885;SDS011;68269;52.514;5.722;2023-06-14T00:06:13;6.45;;;1.25;;
78885;SDS011;68269;52.514;5.722;2023-06-14T00:08:43;6.80;;;1.35;;
78885;SDS011;68269;52.514;5.722;2023-06-14T00:11:12;11.02;;;1.50;;
78885;SDS011;68269;52.514;5.722;2023-06-14T00:13:41;3.90;;;1.33;;
78885;SDS011;68269;52.514;5.722;2023-06-14T00:16:14;5.38;;;1.30;;
78885;SDS011;68269;52.514;5.722;2023-06-14T00:18:43;3.83;;;1.10;;
78885;SDS011;68269;52.514;5.722;2023-06-14T00:21:12;6.20;;;1.15;;
78885;SDS011;68269;52.514;5.722;2023-06-14T00:23:41;7.55;;;1.25;;
78885;SDS011;68269;52.514;5.722;2023-06-14T00:26:11;7.47;;;1.60;;
78885;SDS011;68269;52.514;5.722;2023-06-14T00:28:41;6.57;;;1.20;;
78885;SDS011;68269;52.514;5.722;2023-06-14T00:31:13;8.43;;;1.50;;
78885;SDS011;68269;52.514;5.722;2023-06-14T00:33:43;4.68;;;1.10;;
78885;SDS011;68269;52.514;5.722;2023-06-14T00:36:12;4.65;;;1.48;;
78885;SDS011;68269;52.514;5.722;2023-06-14T00:38:42;5.75;;;1.45;;
78885;SDS011;68269;52.514;5.722;2023-06-14T00:41:11;6.03;;;1.30;;
78885;SDS011;68269;52.514;5.722;2023-06-14T00:43:42;5.68;;;1.05;;
78885;SDS011;68269;52.514;5.722;2023-06-14T00:46:14;3.65;;;1.05;;
78885;SDS011;68269;52.514;5.722;2023-06-14T00:48:43;4.07;;;1.15;;
78885;SDS011;68269;52.514;5.722;2023-06-14T00:51:13;6.95;;;1.38;;
78885;SDS011;68269;52.514;5.722;2023-06-14T00:53:42;4.93;;;1.95;;
78885;SDS011;68269;52.514;5.722;2023-06-14T00:56:12;7.90;;;1.60;;
78885;SDS011;68269;52.514;5.722;2023-06-14T00:58:42;5.95;;;1.13;;
78885;SDS011;68269;52.514;5.722;2023-06-14T01:01:14;6.57;;;1.50;;
78885;SDS011;68269;52.514;5.722;2023-06-14T01:03:44;5.63;;;1.20;;
78885;SDS011;68269;52.514;5.722;2023-06-14T01:06:15;5.22;;;1.23;;
78885;SDS011;68269;52.514;5.722;2023-06-14T01:08:56;6.97;;;1.38;;
78885;SDS011;68269;52.514;5.722;2023-06-14T01:11:32;3.70;;;1.23;;
78885;SDS011;68269;52.514;5.722;2023-06-14T01:14:06;7.53;;;1.08;;
78885;SDS011;68269;52.514;5.722;2023-06-14T01:16:40;4.18;;;1.02;;
78885;SDS011;68269;52.514;5.722;2023-06-14T01:21:40;5.25;;;0.98;;
78885;SDS011;68269;52.514;5.722;2023-06-14T01:24:12;6.20;;;1.30;;
78885;SDS011;68269;52.514;5.722;2023-06-14T01:26:42;4.18;;;1.27;;
78885;SDS011;68269;52.514;5.722;2023-06-14T01:29:11;9.02;;;1.45;;
78885;SDS011;68269;52.514;5.722;2023-06-14T01:31:44;7.03;;;1.17;;
78885;SDS011;68269;52.514;5.722;2023-06-14T01:34:15;5.28;;;1.33;;
78885;SDS011;68269;52.514;5.722;2023-06-14T01:36:44;8.50;;;1.60;;
78885;SDS011;68269;52.514;5.722;2023-06-14T01:39:17;3.15;;;0.98;;
78885;SDS011;68269;52.514;5.722;2023-06-14T01:41:48;7.72;;;1.55;;
78885;SDS011;68269;52.514;5.722;2023-06-14T01:44:18;4.80;;;1.20;;
78885;SDS011;68269;52.514;5.722;2023-06-14T01:46:48;5.18;;;1.50;;
78885;SDS011;68269;52.514;5.722;2023-06-14T01:49:18;6.18;;;1.50;;
78885;SDS011;68269;52.514;5.722;2023-06-14T01:51:48;7.63;;;1.50;;
78885;SDS011;68269;52.514;5.722;2023-06-14T01:54:20;6.38;;;0.90;;
78885;SDS011;68269;52.514;5.722;2023-06-14T01:56:51;4.45;;;1.30;;
78885;SDS011;68269;52.514;5.722;2023-06-14T01:59:20;4.78;;;1.20;;
78885;SDS011;68269;52.514;5.722;2023-06-14T02:01:50;5.85;;;1.40;;
78885;SDS011;68269;52.514;5.722;2023-06-14T02:04:19;4.88;;;1.42;;
78885;SDS011;68269;52.514;5.722;2023-06-14T02:06:48;5.88;;;1.40;;
78885;SDS011;68269;52.514;5.722;2023-06-14T02:09:20;4.50;;;1.35;;
78885;SDS011;68269;52.514;5.722;2023-06-14T02:11:49;7.35;;;1.70;;
78885;SDS011;68269;52.514;5.722;2023-06-14T02:14:20;6.63;;;1.30;;
78885;SDS011;68269;52.514;5.722;2023-06-14T02:16:49;7.18;;;1.60;;
78885;SDS011;68269;52.514;5.722;2023-06-14T02:19:19;6.38;;;1.30;;
78885;SDS011;68269;52.514;5.722;2023-06-14T02:21:49;4.13;;;1.05;;
78885;SDS011;68269;52.514;5.722;2023-06-14T02:24:20;9.30;;;2.10;;
78885;SDS011;68269;52.514;5.722;2023-06-14T02:26:50;4.70;;;1.27;;
78885;SDS011;68269;52.514;5.722;2023-06-14T02:29:19;4.28;;;1.10;;
78885;SDS011;68269;52.514;5.722;2023-06-14T02:31:48;5.68;;;1.65;;
78885;SDS011;68269;52.514;5.722;2023-06-14T02:34:20;6.03;;;1.40;;
78885;SDS011;68269;52.514;5.722;2023-06-14T02:36:49;5.63;;;1.50;;
78885;SDS011;68269;52.514;5.722;2023-06-14T02:39:22;5.47;;;1.55;;
78885;SDS011;68269;52.514;5.722;2023-06-14T02:41:51;4.28;;;1.30;;
78885;SDS011;68269;52.514;5.722;2023-06-14T02:44:23;6.93;;;1.27;;
78885;SDS011;68269;52.514;5.722;2023-06-14T02:46:54;6.75;;;1.52;;
78885;SDS011;68269;52.514;5.722;2023-06-14T02:49:24;4.82;;;1.45;;
78885;SDS011;68269;52.514;5.722;2023-06-14T02:51:54;5.07;;;1.23;;
78885;SDS011;68269;52.514;5.722;2023-06-14T02:54:26;5.43;;;1.30;;
78885;SDS011;68269;52.514;5.722;2023-06-14T02:56:56;7.13;;;1.52;;
78885;SDS011;68269;52.514;5.722;2023-06-14T02:59:25;5.13;;;1.50;;
78885;SDS011;68269;52.514;5.722;2023-06-14T03:01:55;6.05;;;1.35;;
78885;SDS011;68269;52.514;5.722;2023-06-14T03:04:25;5.88;;;1.23;;
78885;SDS011;68269;52.514;5.722;2023-06-14T03:06:55;4.57;;;1.50;;
78885;SDS011;68269;52.514;5.722;2023-06-14T03:09:27;7.82;;;1.30;;
78885;SDS011;68269;52.514;5.722;2023-06-14T03:11:57;5.43;;;1.52;;
78885;SDS011;68269;52.514;5.722;2023-06-14T03:14:26;6.97;;;1.45;;
78885;SDS011;68269;52.514;5.722;2023-06-14T03:16:56;4.03;;;1.20;;
78885;SDS011;68269;52.514;5.722;2023-06-14T03:19:27;5.80;;;1.40;;
78885;SDS011;68269;52.514;5.722;2023-06-14T03:21:57;4.13;;;1.20;;
78885;SDS011;68269;52.514;5.722;2023-06-14T03:24:32;4.53;;;1.30;;
78885;SDS011;68269;52.514;5.722;2023-06-14T03:27:05;9.85;;;1.30;;
78885;SDS011;68269;52.514;5.722;2023-06-14T03:29:36;4.45;;;1.10;;
78885;SDS011;68269;52.514;5.722;2023-06-14T03:32:07;6.22;;;1.33;;
78885;SDS011;68269;52.514;5.722;2023-06-14T03:34:39;4.72;;;1.10;;
78885;SDS011;68269;52.514;5.722;2023-06-14T03:37:15;4.88;;;1.42;;
78885;SDS011;68269;52.514;5.722;2023-06-14T03:39:49;4.35;;;1.15;;
78885;SDS011;68269;52.514;5.722;2023-06-14T03:42:22;7.50;;;1.27;;
78885;SDS011;68269;52.514;5.722;2023-06-14T03:44:51;4.80;;;1.08;;
78885;SDS011;68269;52.514;5.722;2023-06-14T03:47:22;4.10;;;0.98;;
78885;SDS011;68269;52.514;5.722;2023-06-14T03:49:52;9.10;;;1.80;;
78885;SDS011;68269;52.514;5.722;2023-06-14T03:52:22;3.72;;;1.15;;
78885;SDS011;68269;52.514;5.722;2023-06-14T03:54:54;5.25;;;0.85;;
78885;SDS011;68269;52.514;5.722;2023-06-14T03:57:26;6.70;;;1.27;;
78885;SDS011;68269;52.514;5.722;2023-06-14T03:59:56;7.10;;;1.45;;
78885;SDS011;68269;52.514;5.722;2023-06-14T04:02:26;6.95;;;1.40;;
78885;SDS011;68269;52.514;5.722;2023-06-14T04:04:58;4.97;;;1.30;;
78885;SDS011;68269;52.514;5.722;2023-06-14T04:07:28;3.35;;;0.98;;
78885;SDS011;68269;52.514;5.722;2023-06-14T04:10:00;5.95;;;1.52;;
78885;SDS011;68269;52.514;5.722;2023-06-14T04:12:29;5.15;;;1.35;;
78885;SDS011;68269;52.514;5.722;2023-06-14T04:14:59;5.18;;;1.15;;
78885;SDS011;68269;52.514;5.722;2023-06-14T04:17:30;6.15;;;1.40;;
78885;SDS011;68269;52.514;5.722;2023-06-14T04:20:00;4.65;;;1.20;;
78885;SDS011;68269;52.514;5.722;2023-06-14T04:22:33;4.90;;;1.50;;
78885;SDS011;68269;52.514;5.722;2023-06-14T04:25:07;6.18;;;1.33;;
78885;SDS011;68269;52.514;5.722;2023-06-14T04:27:38;3.63;;;1.00;;
78885;SDS011;68269;52.514;5.722;2023-06-14T04:30:08;5.22;;;1.17;;
78885;SDS011;68269;52.514;5.722;2023-06-14T04:32:47;5.07;;;1.20;;
78885;SDS011;68269;52.514;5.722;2023-06-14T04:35:19;4.22;;;1.33;;
78885;SDS011;68269;52.514;5.722;2023-06-14T04:37:50;8.63;;;1.73;;
78885;SDS011;68269;52.514;5.722;2023-06-14T04:40:22;6.72;;;1.20;;
78885;SDS011;68269;52.514;5.722;2023-06-14T04:42:52;6.57;;;1.30;;
78885;SDS011;68269;52.514;5.722;2023-06-14T04:45:21;4.65;;;1.48;;
78885;SDS011;68269;52.514;5.722;2023-06-14T04:47:58;5.28;;;1.42;;
78885;SDS011;68269;52.514;5.722;2023-06-14T04:50:28;6.50;;;1.55;;
78885;SDS011;68269;52.514;5.722;2023-06-14T04:52:58;6.00;;;1.27;;
78885;SDS011;68269;52.514;5.722;2023-06-14T04:55:31;4.65;;;1.63;;
78885;SDS011;68269;52.514;5.722;2023-06-14T04:58:02;4.10;;;1.45;;
78885;SDS011;68269;52.514;5.722;2023-06-14T05:00:32;4.45;;;1.17;;
78885;SDS011;68269;52.514;5.722;2023-06-14T05:03:02;5.53;;;1.88;;
78885;SDS011;68269;52.514;5.722;2023-06-14T05:05:32;5.88;;;1.85;;
78885;SDS011;68269;52.514;5.722;2023-06-14T05:08:02;5.50;;;1.42;;
78885;SDS011;68269;52.514;5.722;2023-06-14T05:10:34;5.30;;;1.30;;
78885;SDS011;68269;52.514;5.722;2023-06-14T05:13:04;6.18;;;1.48;;
78885;SDS011;68269;52.514;5.722;2023-06-14T05:15:34;6.82;;;1.70;;
78885;SDS011;68269;52.514;5.722;2023-06-14T05:18:03;4.40;;;1.38;;
78885;SDS011;68269;52.514;5.722;2023-06-14T05:20:34;4.97;;;1.70;;
78885;SDS011;68269;52.514;5.722;2023-06-14T05:23:03;5.40;;;1.67;;
78885;SDS011;68269;52.514;5.722;2023-06-14T05:25:35;7.57;;;1.80;;
78885;SDS011;68269;52.514;5.722;2023-06-14T05:28:04;5.70;;;1.60;;
78885;SDS011;68269;52.514;5.722;2023-06-14T05:30:34;7.65;;;1.67;;
78885;SDS011;68269;52.514;5.722;2023-06-14T05:33:03;7.65;;;1.60;;
78885;SDS011;68269;52.514;5.722;2023-06-14T05:35:32;6.15;;;1.88;;
78885;SDS011;68269;52.514;5.722;2023-06-14T05:38:03;5.65;;;1.52;;
78885;SDS011;68269;52.514;5.722;2023-06-14T05:40:36;6.15;;;1.70;;
78885;SDS011;68269;52.514;5.722;2023-06-14T05:43:05;5.57;;;1.55;;
78885;SDS011;68269;52.514;5.722;2023-06-14T05:45:34;7.55;;;2.15;;
78885;SDS011;68269;52.514;5.722;2023-06-14T05:48:03;7.60;;;1.65;;
78885;SDS011;68269;52.514;5.722;2023-06-14T05:50:33;6.78;;;1.70;;
78885;SDS011;68269;52.514;5.722;2023-06-14T05:53:02;6.82;;;1.38;;
78885;SDS011;68269;52.514;5.722;2023-06-14T05:55:31;5.68;;;1.67;;
78885;SDS011;68269;52.514;5.722;2023-06-14T05:58:04;7.97;;;1.85;;
78885;SDS011;68269;52.514;5.722;2023-06-14T06:00:33;5.47;;;1.58;;
78885;SDS011;68269;52.514;5.722;2023-06-14T06:03:02;4.60;;;1.42;;
78885;SDS011;68269;52.514;5.722;2023-06-14T06:05:33;6.88;;;1.58;;
78885;SDS011;68269;52.514;5.722;2023-06-14T06:08:03;7.82;;;1.70;;
78885;SDS011;68269;52.514;5.722;2023-06-14T06:10:32;5.78;;;1.70;;
78885;SDS011;68269;52.514;5.722;2023-06-14T06:13:04;7.13;;;1.75;;
78885;SDS011;68269;52.514;5.722;2023-06-14T06:15:33;7.70;;;1.90;;
78885;SDS011;68269;52.514;5.722;2023-06-14T06:18:03;5.82;;;1.95;;
78885;SDS011;68269;52.514;5.722;2023-06-14T06:20:32;7.03;;;1.60;;
78885;SDS011;68269;52.514;5.722;2023-06-14T06:23:02;5.70;;;1.95;;
78885;SDS011;68269;52.514;5.722;2023-06-14T06:25:31;9.05;;;1.80;;
78885;SDS011;68269;52.514;5.722;2023-06-14T06:28:00;6.38;;;1.85;;
78885;SDS011;68269;52.514;5.722;2023-06-14T06:30:32;6.00;;;1.30;;
78885;SDS011;68269;52.514;5.722;2023-06-14T06:33:02;5.10;;;1.30;;
78885;SDS011;68269;52.514;5.722;2023-06-14T06:35:31;6.82;;;1.65;;
78885;SDS011;68269;52.514;5.722;2023-06-14T06:38:01;7.57;;;2.00;;
78885;SDS011;68269;52.514;5.722;2023-06-14T06:40:30;7.25;;;1.42;;
78885;SDS011;68269;52.514;5.722;2023-06-14T06:42:59;7.70;;;1.70;;
78885;SDS011;68269;52.514;5.722;2023-06-14T06:45:31;7.43;;;1.73;;
78885;SDS011;68269;52.514;5.722;2023-06-14T06:48:01;5.07;;;1.67;;
78885;SDS011;68269;52.514;5.722;2023-06-14T06:50:30;6.07;;;1.70;;
78885;SDS011;68269;52.514;5.722;2023-06-14T06:52:59;7.53;;;2.08;;
78885;SDS011;68269;52.514;5.722;2023-06-14T06:55:28;5.72;;;1.60;;
78885;SDS011;68269;52.514;5.722;2023-06-14T06:57:58;6.53;;;1.52;;
78885;SDS011;68269;52.514;5.722;2023-06-14T07:00:33;5.30;;;1.58;;
78885;SDS011;68269;52.514;5.722;2023-06-14T07:03:02;4.22;;;1.52;;
78885;SDS011;68269;52.514;5.722;2023-06-14T07:05:31;7.05;;;1.75;;
78885;SDS011;68269;52.514;5.722;2023-06-14T07:08:01;5.28;;;1.55;;
78885;SDS011;68269;52.514;5.722;2023-06-14T07:10:30;5.85;;;1.48;;
78885;SDS011;68269;52.514;5.722;2023-06-14T07:13:00;5.90;;;1.70;;
78885;SDS011;68269;52.514;5.722;2023-06-14T07:15:29;4.30;;;1.35;;
78885;SDS011;68269;52.514;5.722;2023-06-14T07:18:02;4.10;;;1.38;;
78885;SDS011;68269;52.514;5.722;2023-06-14T07:20:32;6.20;;;1.23;;
78885;SDS011;68269;52.514;5.722;2023-06-14T07:23:04;8.88;;;1.40;;
78885;SDS011;68269;52.514;5.722;2023-06-14T07:25:33;4.55;;;1.27;;
78885;SDS011;68269;52.514;5.722;2023-06-14T07:28:03;3.92;;;1.02;;
78885;SDS011;68269;52.514;5.722;2023-06-14T07:30:33;5.03;;;1.60;;
78885;SDS011;68269;52.514;5.722;2023-06-14T07:33:04;4.85;;;1.45;;
78885;SDS011;68269;52.514;5.722;2023-06-14T07:35:34;5.20;;;1.10;;
78885;SDS011;68269;52.514;5.722;2023-06-14T07:38:03;3.42;;;1.02;;
78885;SDS011;68269;52.514;5.722;2023-06-14T07:40:32;4.50;;;1.33;;
78885;SDS011;68269;52.514;5.722;2023-06-14T07:43:02;4.55;;;1.13;;
78885;SDS011;68269;52.514;5.722;2023-06-14T07:45:31;4.78;;;1.10;;
78885;SDS011;68269;52.514;5.722;2023-06-14T07:48:00;8.63;;;1.08;;
78885;SDS011;68269;52.514;5.722;2023-06-14T07:50:32;3.97;;;1.20;;
78885;SDS011;68269;52.514;5.722;2023-06-14T07:53:01;3.20;;;0.80;;
78885;SDS011;68269;52.514;5.722;2023-06-14T07:55:31;4.18;;;1.10;;
78885;SDS011;68269;52.514;5.722;2023-06-14T07:58:02;3.17;;;0.80;;
78885;SDS011;68269;52.514;5.722;2023-06-14T08:00:31;3.58;;;0.98;;
78885;SDS011;68269;52.514;5.722;2023-06-14T08:03:01;7.05;;;0.88;;
78885;SDS011;68269;52.514;5.722;2023-06-14T08:05:33;4.80;;;0.88;;
78885;SDS011;68269;52.514;5.722;2023-06-14T08:08:03;3.38;;;0.80;;
78885;SDS011;68269;52.514;5.722;2023-06-14T08:10:32;7.22;;;1.70;;
78885;SDS011;68269;52.514;5.722;2023-06-14T08:13:01;11.48;;;2.00;;
78885;SDS011;68269;52.514;5.722;2023-06-14T08:15:31;4.35;;;1.10;;
78885;SDS011;68269;52.514;5.722;2023-06-14T08:18:00;3.25;;;0.93;;
78885;SDS011;68269;52.514;5.722;2023-06-14T08:20:29;4.28;;;0.90;;
78885;SDS011;68269;52.514;5.722;2023-06-14T08:23:02;4.32;;;1.20;;
78885;SDS011;68269;52.514;5.722;2023-06-14T08:25:31;4.53;;;1.20;;
78885;SDS011;68269;52.514;5.722;2023-06-14T08:28:01;4.82;;;1.00;;
78885;SDS011;68269;52.514;5.722;2023-06-14T08:30:30;3.92;;;1.20;;
78885;SDS011;68269;52.514;5.722;2023-06-14T08:33:00;4.75;;;1.00;;
78885;SDS011;68269;52.514;5.722;2023-06-14T08:35:29;4.65;;;1.00;;
78885;SDS011;68269;52.514;5.722;2023-06-14T08:38:01;4.70;;;1.30;;
78885;SDS011;68269;52.514;5.722;2023-06-14T08:40:30;4.05;;;1.00;;
78885;SDS011;68269;52.514;5.722;2023-06-14T08:43:00;4.20;;;0.77;;
78885;SDS011;68269;52.514;5.722;2023-06-14T08:45:29;5.03;;;1.10;;
78885;SDS011;68269;52.514;5.722;2023-06-14T08:47:58;5.70;;;1.15;;
78885;SDS011;68269;52.514;5.722;2023-06-14T08:50:28;5.88;;;1.30;;
78885;SDS011;68269;52.514;5.722;2023-06-14T08:53:02;7.00;;;1.23;;
78885;SDS011;68269;52.514;5.722;2023-06-14T08:55:32;3.90;;;1.20;;
78885;SDS011;68269;52.514;5.722;2023-06-14T08:58:03;5.75;;;1.10;;
78885;SDS011;68269;52.514;5.722;2023-06-14T09:00:35;3.00;;;0.85;;
78885;SDS011;68269;52.514;5.722;2023-06-14T09:03:07;3.00;;;0.98;;
78885;SDS011;68269;52.514;5.722;2023-06-14T09:05:38;4.63;;;1.02;;
78885;SDS011;68269;52.514;5.722;2023-06-14T09:08:10;5.53;;;1.10;;
78885;SDS011;68269;52.514;5.722;2023-06-14T09:10:40;6.30;;;1.20;;
78885;SDS011;68269;52.514;5.722;2023-06-14T09:13:09;3.33;;;1.00;;
78885;SDS011;68269;52.514;5.722;2023-06-14T09:15:38;4.78;;;1.20;;
78885;SDS011;68269;52.514;5.722;2023-06-14T09:18:08;3.20;;;0.80;;
78885;SDS011;68269;52.514;5.722;2023-06-14T09:20:37;3.25;;;1.00;;
78885;SDS011;68269;52.514;5.722;2023-06-14T09:23:07;2.92;;;1.00;;
78885;SDS011;68269;52.514;5.722;2023-06-14T09:25:45;4.93;;;1.00;;
78885;SDS011;68269;52.514;5.722;2023-06-14T09:28:15;4.97;;;1.40;;
78885;SDS011;68269;52.514;5.722;2023-06-14T09:30:45;3.83;;;1.00;;
78885;SDS011;68269;52.514;5.722;2023-06-14T09:33:16;6.88;;;1.20;;
78885;SDS011;68269;52.514;5.722;2023-06-14T09:35:46;9.65;;;1.33;;
78885;SDS011;68269;52.514;5.722;2023-06-14T09:38:19;6.75;;;1.00;;
78885;SDS011;68269;52.514;5.722;2023-06-14T09:43:24;2.50;;;0.82;;
78885;SDS011;68269;52.514;5.722;2023-06-14T09:45:54;5.60;;;1.02;;
78885;SDS011;68269;52.514;5.722;2023-06-14T09:48:24;4.80;;;1.00;;
78885;SDS011;68269;52.514;5.722;2023-06-14T09:50:53;3.03;;;0.88;;
78885;SDS011;68269;52.514;5.722;2023-06-14T09:53:25;4.68;;;1.05;;
78885;SDS011;68269;52.514;5.722;2023-06-14T09:55:58;4.07;;;0.90;;
78885;SDS011;68269;52.514;5.722;2023-06-14T09:58:28;4.05;;;0.93;;
78885;SDS011;68269;52.514;5.722;2023-06-14T10:00:59;3.38;;;0.90;;
78885;SDS011;68269;52.514;5.722;2023-06-14T10:03:29;3.97;;;1.13;;
78885;SDS011;68269;52.514;5.722;2023-06-14T10:05:59;5.57;;;1.10;;
78885;SDS011;68269;52.514;5.722;2023-06-14T10:08:31;4.10;;;0.93;;
78885;SDS011;68269;52.514;5.722;2023-06-14T10:11:05;4.60;;;0.90;;
78885;SDS011;68269;52.514;5.722;2023-06-14T10:16:05;5.63;;;1.20;;
78885;SDS011;68269;52.514;5.722;2023-06-14T10:18:42;2.88;;;0.52;;
78885;SDS011;68269;52.514;5.722;2023-06-14T10:21:17;4.82;;;1.00;;
78885;SDS011;68269;52.514;5.722;2023-06-14T10:23:50;2.08;;;0.63;;
78885;SDS011;68269;52.514;5.722;2023-06-14T10:26:23;2.47;;;0.70;;
78885;SDS011;68269;52.514;5.722;2023-06-14T10:28:56;4.13;;;0.95;;
78885;SDS011;68269;52.514;5.722;2023-06-14T10:31:40;2.72;;;0.80;;
78885;SDS011;68269;52.514;5.722;2023-06-14T10:34:10;3.55;;;0.90;;
78885;SDS011;68269;52.514;5.722;2023-06-14T10:36:41;4.00;;;0.75;;
78885;SDS011;68269;52.514;5.722;2023-06-14T10:39:13;4.78;;;1.00;;
78885;SDS011;68269;52.514;5.722;2023-06-14T10:41:54;2.20;;;0.80;;
78885;SDS011;68269;52.514;5.722;2023-06-14T10:47:10;5.07;;;0.80;;
78885;SDS011;68269;52.514;5.722;2023-06-14T10:49:51;5.05;;;1.45;;
78885;SDS011;68269;52.514;5.722;2023-06-14T10:52:21;4.68;;;0.98;;
78885;SDS011;68269;52.514;5.722;2023-06-14T10:55:00;5.53;;;0.88;;
78885;SDS011;68269;52.514;5.722;2023-06-14T10:57:43;5.70;;;0.85;;
78885;SDS011;68269;52.514;5.722;2023-06-14T11:00:17;7.00;;;1.23;;
78885;SDS011;68269;52.514;5.722;2023-06-14T11:03:07;4.30;;;0.98;;
78885;SDS011;68269;52.514;5.722;2023-06-14T11:06:11;4.97;;;0.90;;
78885;SDS011;68269;52.514;5.722;2023-06-14T11:08:52;4.53;;;0.82;;
78885;SDS011;68269;52.514;5.722;2023-06-14T11:11:41;3.42;;;0.70;;
78885;SDS011;68269;52.514;5.722;2023-06-14T11:14:14;4.15;;;1.17;;
78885;SDS011;68269;52.514;5.722;2023-06-14T11:16:47;2.70;;;0.77;;
78885;SDS011;68269;52.514;5.722;2023-06-14T11:19:17;5.90;;;1.40;;
78885;SDS011;68269;52.514;5.722;2023-06-14T11:21:47;3.67;;;0.55;;
78885;SDS011;68269;52.514;5.722;2023-06-14T11:24:16;3.67;;;1.08;;
78885;SDS011;68269;52.514;5.722;2023-06-14T11:26:46;3.83;;;0.80;;
78885;SDS011;68269;52.514;5.722;2023-06-14T11:29:19;6.30;;;0.95;;
78885;SDS011;68269;52.514;5.722;2023-06-14T11:31:49;3.20;;;0.70;;
78885;SDS011;68269;52.514;5.722;2023-06-14T11:34:19;3.38;;;0.70;;
78885;SDS011;68269;52.514;5.722;2023-06-14T11:36:48;2.97;;;1.00;;
78885;SDS011;68269;52.514;5.722;2023-06-14T11:39:23;6.50;;;1.05;;
78885;SDS011;68269;52.514;5.722;2023-06-14T11:41:53;7.47;;;1.10;;
78885;SDS011;68269;52.514;5.722;2023-06-14T11:44:29;2.53;;;0.80;;
78885;SDS011;68269;52.514;5.722;2023-06-14T11:47:03;3.00;;;0.73;;
78885;SDS011;68269;52.514;5.722;2023-06-14T11:49:34;2.70;;;0.65;;
78885;SDS011;68269;52.514;5.722;2023-06-14T11:52:04;4.57;;;0.95;;
78885;SDS011;68269;52.514;5.722;2023-06-14T11:54:34;3.67;;;1.00;;
78885;SDS011;68269;52.514;5.722;2023-06-14T11:57:04;4.97;;;1.00;;
78885;SDS011;68269;52.514;5.722;2023-06-14T11:59:40;5.13;;;0.95;;
78885;SDS011;68269;52.514;5.722;2023-06-14T12:02:10;4.63;;;1.05;;
78885;SDS011;68269;52.514;5.722;2023-06-14T12:04:43;3.53;;;0.82;;
78885;SDS011;68269;52.514;5.722;2023-06-14T12:07:13;7.47;;;0.85;;
78885;SDS011;68269;52.514;5.722;2023-06-14T12:12:35;4.13;;;0.90;;
78885;SDS011;68269;52.514;5.722;2023-06-14T12:15:09;4.70;;;0.98;;
78885;SDS011;68269;52.514;5.722;2023-06-14T12:17:39;4.32;;;1.08;;
78885;SDS011;68269;52.514;5.722;2023-06-14T12:20:12;4.30;;;0.95;;
78885;SDS011;68269;52.514;5.722;2023-06-14T12:22:50;4.45;;;0.95;;
78885;SDS011;68269;52.514;5.722;2023-06-14T12:25:26;12.35;;;1.20;;
78885;SDS011;68269;52.514;5.722;2023-06-14T12:27:57;5.35;;;1.08;;
78885;SDS011;68269;52.514;5.722;2023-06-14T12:30:29;4.85;;;0.85;;
78885;SDS011;68269;52.514;5.722;2023-06-14T12:32:58;3.30;;;0.70;;
78885;SDS011;68269;52.514;5.722;2023-06-14T12:35:27;3.53;;;0.88;;
78885;SDS011;68269;52.514;5.722;2023-06-14T12:37:57;5.45;;;1.17;;
78885;SDS011;68269;52.514;5.722;2023-06-14T12:40:26;4.75;;;0.93;;
78885;SDS011;68269;52.514;5.722;2023-06-14T12:42:55;3.33;;;0.70;;
78885;SDS011;68269;52.514;5.722;2023-06-14T12:45:25;7.20;;;1.00;;
78885;SDS011;68269;52.514;5.722;2023-06-14T12:47:57;6.60;;;0.80;;
78885;SDS011;68269;52.514;5.722;2023-06-14T12:50:26;3.60;;;0.95;;
78885;SDS011;68269;52.514;5.722;2023-06-14T12:52:56;4.00;;;0.70;;
78885;SDS011;68269;52.514;5.722;2023-06-14T12:55:25;3.53;;;0.63;;
78885;SDS011;68269;52.514;5.722;2023-06-14T12:57:54;3.40;;;0.85;;
78885;SDS011;68269;52.514;5.722;2023-06-14T13:00:24;3.50;;;0.80;;
78885;SDS011;68269;52.514;5.722;2023-06-14T13:02:58;2.92;;;0.75;;
78885;SDS011;68269;52.514;5.722;2023-06-14T13:05:27;3.47;;;0.93;;
78885;SDS011;68269;52.514;5.722;2023-06-14T13:07:57;4.60;;;1.00;;
78885;SDS011;68269;52.514;5.722;2023-06-14T13:10:26;2.67;;;0.75;;
78885;SDS011;68269;52.514;5.722;2023-06-14T13:12:55;4.68;;;0.93;;
78885;SDS011;68269;52.514;5.722;2023-06-14T13:15:25;1.98;;;0.52;;
78885;SDS011;68269;52.514;5.722;2023-06-14T13:17:58;4.15;;;1.05;;
78885;SDS011;68269;52.514;5.722;2023-06-14T13:20:28;3.47;;;0.82;;
78885;SDS011;68269;52.514;5.722;2023-06-14T13:22:58;2.67;;;0.82;;
78885;SDS011;68269;52.514;5.722;2023-06-14T13:25:29;3.65;;;0.85;;
78885;SDS011;68269;52.514;5.722;2023-06-14T13:27:59;2.67;;;0.60;;
78885;SDS011;68269;52.514;5.722;2023-06-14T13:30:28;3.90;;;1.00;;
78885;SDS011;68269;52.514;5.722;2023-06-14T13:33:00;4.18;;;0.80;;
78885;SDS011;68269;52.514;5.722;2023-06-14T13:35:30;3.45;;;0.63;;
78885;SDS011;68269;52.514;5.722;2023-06-14T13:37:59;2.83;;;0.63;;
78885;SDS011;68269;52.514;5.722;2023-06-14T13:40:29;2.47;;;0.57;;
78885;SDS011;68269;52.514;5.722;2023-06-14T13:42:58;3.95;;;0.95;;
78885;SDS011;68269;52.514;5.722;2023-06-14T13:45:27;3.42;;;0.90;;
78885;SDS011;68269;52.514;5.722;2023-06-14T13:47:56;3.58;;;0.90;;
78885;SDS011;68269;52.514;5.722;2023-06-14T13:50:28;3.78;;;0.93;;
78885;SDS011;68269;52.514;5.722;2023-06-14T13:52:57;1.85;;;0.52;;
78885;SDS011;68269;52.514;5.722;2023-06-14T13:55:27;2.90;;;0.82;;
78885;SDS011;68269;52.514;5.722;2023-06-14T13:57:56;2.92;;;0.85;;
78885;SDS011;68269;52.514;5.722;2023-06-14T14:00:26;3.28;;;0.90;;
78885;SDS011;68269;52.514;5.722;2023-06-14T14:02:55;4.13;;;0.90;;
78885;SDS011;68269;52.514;5.722;2023-06-14T14:05:28;4.30;;;0.77;;
78885;SDS011;68269;52.514;5.722;2023-06-14T14:07:58;3.47;;;1.02;;
78885;SDS011;68269;52.514;5.722;2023-06-14T14:10:27;6.35;;;0.98;;
78885;SDS011;68269;52.514;5.722;2023-06-14T14:12:57;5.13;;;0.98;;
78885;SDS011;68269;52.514;5.722;2023-06-14T14:15:27;4.03;;;0.85;;
78885;SDS011;68269;52.514;5.722;2023-06-14T14:18:00;3.65;;;0.85;;
78885;SDS011;68269;52.514;5.722;2023-06-14T14:20:32;3.42;;;1.10;;
78885;SDS011;68269;52.514;5.722;2023-06-14T14:23:01;2.92;;;0.90;;
78885;SDS011;68269;52.514;5.722;2023-06-14T14:25:30;3.20;;;1.00;;
78885;SDS011;68269;52.514;5.722;2023-06-14T14:28:00;5.32;;;1.10;;
78885;SDS011;68269;52.514;5.722;2023-06-14T14:30:29;4.72;;;0.80;;
78885;SDS011;68269;52.514;5.722;2023-06-14T14:32:59;3.35;;;0.88;;
78885;SDS011;68269;52.514;5.722;2023-06-14T14:35:28;2.97;;;0.70;;
78885;SDS011;68269;52.514;5.722;2023-06-14T14:38:00;4.75;;;0.98;;
78885;SDS011;68269;52.514;5.722;2023-06-14T14:40:30;3.22;;;0.73;;
78885;SDS011;68269;52.514;5.722;2023-06-14T14:43:00;4.65;;;1.13;;
78885;SDS011;68269;52.514;5.722;2023-06-14T14:45:29;3.78;;;0.90;;
78885;SDS011;68269;52.514;5.722;2023-06-14T14:48:00;4.65;;;1.33;;
78885;SDS011;68269;52.514;5.722;2023-06-14T14:50:32;5.60;;;0.85;;
78885;SDS011;68269;52.514;5.722;2023-06-14T14:53:01;7.00;;;1.00;;
78885;SDS011;68269;52.514;5.722;2023-06-14T14:55:31;2.85;;;0.88;;
78885;SDS011;68269;52.514;5.722;2023-06-14T14:58:03;2.05;;;0.73;;
78885;SDS011;68269;52.514;5.722;2023-06-14T15:00:32;3.67;;;0.93;;
78885;SDS011;68269;52.514;5.722;2023-06-14T15:03:02;6.53;;;1.30;;
78885;SDS011;68269;52.514;5.722;2023-06-14T15:05:34;4.45;;;1.00;;
78885;SDS011;68269;52.514;5.722;2023-06-14T15:08:03;6.07;;;1.00;;
78885;SDS011;68269;52.514;5.722;2023-06-14T15:10:37;2.70;;;0.80;;
78885;SDS011;68269;52.514;5.722;2023-06-14T15:13:08;4.90;;;1.00;;
78885;SDS011;68269;52.514;5.722;2023-06-14T15:15:38;3.03;;;0.93;;
78885;SDS011;68269;52.514;5.722;2023-06-14T15:18:07;8.98;;;1.25;;
78885;SDS011;68269;52.514;5.722;2023-06-14T15:20:39;3.33;;;0.80;;
78885;SDS011;68269;52.514;5.722;2023-06-14T15:23:08;4.50;;;1.10;;